createdAt,value
2022-08-07T00:03:03.416Z,101118.23
2022-08-07T00:07:41.128Z,101117.95
2022-08-07T00:11:33.080Z,101117.98
2022-08-07T00:15:51.065Z,101118.38
2022-08-07T00:20:10.705Z,101121.55
2022-08-07T00:24:39.715Z,101124.27
2022-08-07T00:28:33.319Z,101128.40
2022-08-07T00:51:09.484Z,101131.11
2022-08-07T00:54:40.810Z,101129.58
2022-08-07T01:14:28.845Z,101124.95
2022-08-07T01:18:16.922Z,101121.27
2022-08-07T01:22:22.867Z,101119.09
2022-08-07T01:26:06.975Z,101113.16
2022-08-07T01:36:33.992Z,101115.25
2022-08-07T01:40:43.860Z,101109.29
2022-08-07T01:44:42.756Z,101107.70
2022-08-07T01:48:19.572Z,101108.57
2022-08-07T01:52:17.497Z,101110.58
2022-08-07T01:56:51.983Z,101110.80
2022-08-07T02:04:04.406Z,101110.84
2022-08-07T02:18:47.494Z,101105.67
2022-08-07T02:42:16.361Z,101104.73
2022-08-07T02:50:30.841Z,101110.50
2022-08-07T02:54:13.192Z,101107.88
2022-08-07T02:58:05.478Z,101107.42
2022-08-07T03:01:36.143Z,101105.98
2022-08-07T03:05:48.556Z,101106.55
2022-08-07T03:09:49.385Z,101108.52
2022-08-07T03:18:04.578Z,101106.86
2022-08-07T03:21:50.651Z,101111.46
2022-08-07T03:37:55.128Z,101119.20
2022-08-07T03:41:42.249Z,101120.08
2022-08-07T03:45:59.438Z,101123.84
2022-08-07T03:50:13.152Z,101129.27
2022-08-07T03:54:33.711Z,101125.90
2022-08-07T03:59:06.866Z,101133.53
2022-08-07T04:02:50.534Z,101126.30
2022-08-07T04:06:45.271Z,101135.05
2022-08-07T04:12:23.310Z,101137.54
2022-08-07T04:15:42.940Z,101132.24
2022-08-07T04:19:51.048Z,101143.86
2022-08-07T04:23:43.283Z,101145.14
2022-08-07T04:27:58.972Z,101142.23
2022-08-07T04:32:03.394Z,101142.95
2022-08-07T04:36:01.438Z,101141.73
2022-08-07T04:39:55.490Z,101142.21
2022-08-07T05:13:00.071Z,101154.88
2022-08-07T05:16:52.695Z,101153.11
2022-08-07T05:20:15.457Z,101152.95
2022-08-07T05:23:48.781Z,101152.45
2022-08-07T05:28:15.913Z,101153.88
2022-08-07T05:31:00.959Z,101152.50
2022-08-07T05:34:28.224Z,101154.02
2022-08-07T05:37:48.457Z,101153.59
2022-08-07T05:41:12.447Z,101155.54
2022-08-07T05:45:11.853Z,101160.00
2022-08-07T05:48:58.151Z,101156.24
2022-08-07T05:51:46.635Z,101153.16
2022-08-07T05:54:56.034Z,101153.44
2022-08-07T05:57:50.365Z,101151.48
2022-08-07T06:00:35.561Z,101157.11
2022-08-07T06:03:13.018Z,101153.10
2022-08-07T06:05:56.675Z,101151.61
2022-08-07T06:08:32.280Z,101148.38
2022-08-07T06:11:17.605Z,101151.10
2022-08-07T06:14:13.379Z,101154.52
2022-08-07T06:16:57.209Z,101154.17
2022-08-07T06:19:52.353Z,101147.26
2022-08-07T06:26:13.337Z,101151.37
2022-08-07T06:29:49.703Z,101149.52
2022-08-07T06:32:24.168Z,101150.65
2022-08-07T06:35:45.655Z,101146.66
2022-08-07T06:38:35.108Z,101146.21
2022-08-07T06:42:15.325Z,101146.52
2022-08-07T06:46:41.175Z,101149.88
2022-08-07T06:50:23.736Z,101144.81
2022-08-07T06:54:11.988Z,101152.58
2022-08-07T06:57:22.563Z,101156.02
2022-08-07T07:00:56.948Z,101158.67
2022-08-07T07:03:47.470Z,101159.36
2022-08-07T07:07:00.643Z,101166.31
2022-08-07T07:09:36.222Z,101165.84
2022-08-07T07:12:41.780Z,101166.05
2022-08-07T07:19:55.502Z,101167.39
2022-08-07T07:24:09.775Z,101162.85
2022-08-07T07:26:39.752Z,101161.86
2022-08-07T07:30:32.805Z,101160.14
2022-08-07T07:34:06.900Z,101154.72
2022-08-07T07:36:40.871Z,101154.05
2022-08-07T07:39:13.607Z,101154.27
2022-08-07T07:42:08.921Z,101148.36
2022-08-07T07:45:12.849Z,101145.11
2022-08-07T07:48:04.437Z,101149.46
2022-08-07T07:50:39.108Z,101143.46
2022-08-07T07:53:20.499Z,101139.63
2022-08-07T07:56:01.393Z,101138.20
2022-08-07T07:58:37.093Z,101135.41
2022-08-07T08:02:01.668Z,101135.73
2022-08-07T08:05:22.351Z,101138.95
2022-08-07T08:14:38.202Z,101143.56
2022-08-07T08:17:57.937Z,101142.70
2022-08-07T08:25:04.390Z,101139.77
2022-08-07T08:28:08.902Z,101142.69
2022-08-07T08:36:59.050Z,101139.96
2022-08-07T08:43:56.126Z,101142.45
2022-08-07T08:50:41.916Z,101146.73
2022-08-07T09:26:38.503Z,101132.02
2022-08-07T09:31:38.362Z,101127.20
2022-08-07T09:36:05.246Z,101125.11
2022-08-07T09:53:12.614Z,101103.71
2022-08-07T09:56:19.702Z,101100.09
2022-08-07T09:59:22.032Z,101106.13
2022-08-07T10:08:01.691Z,101093.52
2022-08-07T10:12:01.661Z,101088.98
2022-08-07T10:14:34.970Z,101087.73
2022-08-07T10:58:40.789Z,101040.43
2022-08-07T11:02:12.467Z,101039.59
2022-08-07T11:20:30.059Z,101032.50
2022-08-07T11:28:27.979Z,101035.71
2022-08-07T11:36:25.091Z,101033.89
2022-08-07T11:40:00.289Z,101033.55
2022-08-07T11:43:17.892Z,101030.77
2022-08-07T11:46:22.251Z,101028.48
2022-08-07T11:52:35.652Z,101026.80
2022-08-07T11:56:27.665Z,101019.80
2022-08-07T12:00:11.551Z,101020.02
2022-08-07T12:11:21.942Z,101014.38
2022-08-07T12:17:34.095Z,101001.69
2022-08-07T12:22:38.590Z,101000.15
2022-08-07T12:26:00.447Z,100999.57
2022-08-07T12:28:45.010Z,100998.29
2022-08-07T12:31:52.779Z,100995.80
2022-08-07T12:41:51.365Z,100993.39
2022-08-07T12:45:18.592Z,100989.38
2022-08-07T13:29:26.068Z,100947.52
2022-08-07T13:40:32.767Z,100954.27
2022-08-07T13:46:50.137Z,100948.77
2022-08-07T13:50:33.660Z,100948.17
2022-08-07T14:00:54.563Z,100936.17
2022-08-07T16:09:42.303Z,100858.91
2022-08-07T16:16:42.965Z,100864.02
2022-08-07T16:20:00.625Z,100866.64
2022-08-07T16:23:09.902Z,100866.83
2022-08-07T16:26:03.410Z,100863.56
2022-08-07T16:30:06.345Z,100862.90
2022-08-07T16:32:04.584Z,100859.19
2022-08-07T16:34:48.347Z,100862.50
2022-08-07T16:38:03.935Z,100860.83
2022-08-07T16:46:07.815Z,100860.16
2022-08-07T16:48:37.653Z,100858.02
2022-08-07T16:52:06.487Z,100861.05
2022-08-07T16:55:13.179Z,100857.27
2022-08-07T16:58:08.223Z,100855.90
2022-08-07T17:01:08.597Z,100856.07
2022-08-07T17:04:31.596Z,100856.48
2022-08-07T17:07:56.021Z,100857.45
2022-08-07T17:12:33.419Z,100856.77
2022-08-07T17:24:36.523Z,100865.77
2022-08-07T17:35:32.922Z,100874.09
2022-08-07T17:39:15.497Z,100874.16
2022-08-07T17:43:02.705Z,100871.67
2022-08-07T17:52:00.841Z,100877.41
2022-08-07T17:59:10.750Z,100884.20
2022-08-07T18:02:53.817Z,100886.44
2022-08-07T18:07:20.351Z,100887.57
2022-08-07T18:16:16.032Z,100897.61
2022-08-07T18:23:43.588Z,100904.94
2022-08-07T18:27:21.083Z,100904.80
2022-08-07T18:30:45.860Z,100904.09
2022-08-07T18:34:37.140Z,100905.80
2022-08-07T18:42:57.717Z,100912.64
2022-08-07T18:46:25.669Z,100918.80
2022-08-07T18:50:29.890Z,100920.42
2022-08-07T18:52:53.690Z,100922.61
2022-08-07T18:56:04.197Z,100926.38
2022-08-07T18:59:47.473Z,100928.05
2022-08-07T19:06:34.286Z,100935.48
2022-08-07T19:09:55.329Z,100937.05
2022-08-07T19:13:12.007Z,100939.95
2022-08-07T19:22:04.235Z,100944.45
2022-08-07T19:26:23.663Z,100944.61
2022-08-07T19:33:13.256Z,100944.86
2022-08-07T19:36:13.167Z,100947.48
2022-08-07T19:46:55.637Z,100961.60
2022-08-07T20:08:54.723Z,100972.81
2022-08-07T20:16:47.834Z,100972.82
2022-08-07T20:34:00.643Z,100978.83
2022-08-07T20:37:15.199Z,100983.48
2022-08-07T20:55:18.994Z,100985.45
2022-08-07T21:03:09.118Z,100992.89
2022-08-07T21:16:36.070Z,100996.82
2022-08-07T22:04:37.618Z,101009.48
2022-08-07T22:08:54.151Z,101013.75
2022-08-07T22:12:06.857Z,101017.86
2022-08-07T22:16:42.502Z,101017.44
2022-08-07T22:35:39.702Z,101007.20
2022-08-07T22:40:14.244Z,101006.10
2022-08-07T22:44:18.526Z,101005.54
2022-08-07T22:52:02.112Z,100996.11
2022-08-07T22:58:39.093Z,101002.45
2022-08-07T23:02:08.591Z,101003.41
2022-08-07T23:06:06.806Z,101003.20
2022-08-07T23:10:06.080Z,101002.00
2022-08-07T23:12:34.066Z,101006.00
2022-08-07T23:16:44.898Z,101002.10
2022-08-07T23:19:51.355Z,101001.04
2022-08-07T23:22:43.365Z,101006.59
2022-08-07T23:26:03.574Z,101000.33
2022-08-07T23:29:43.482Z,101000.92
2022-08-07T23:34:23.710Z,101003.90
2022-08-07T23:36:30.011Z,101003.86
2022-08-07T23:39:40.988Z,101004.70
2022-08-07T23:43:17.976Z,101004.75
2022-08-07T23:46:48.423Z,101004.30
2022-08-07T23:50:05.226Z,100999.61
2022-08-07T23:53:00.970Z,100999.52
2022-08-07T23:56:34.942Z,100999.14
